sensor_id;sensor_type;location;lat;lon;timestamp;P1;durP1;ratioP1;P2;durP2;ratioP2
65387;SDS011;51992;53.528;49.474;2022-09-16T00:01:34;6.63;;;4.15;;
65387;SDS011;51992;53.528;49.474;2022-09-16T00:04:00;7.65;;;4.00;;
65387;SDS011;51992;53.528;49.474;2022-09-16T00:06:26;6.55;;;4.57;;
65387;SDS011;51992;53.528;49.474;2022-09-16T00:08:59;4.18;;;3.78;;
65387;SDS011;51992;53.528;49.474;2022-09-16T00:11:28;6.50;;;4.30;;
65387;SDS011;51992;53.528;49.474;2022-09-16T00:13:58;11.30;;;4.17;;
65387;SDS011;51992;53.528;49.474;2022-09-16T00:16:25;6.18;;;4.65;;
65387;SDS011;51992;53.528;49.474;2022-09-16T00:18:54;4.25;;;3.70;;
65387;SDS011;51992;53.528;49.474;2022-09-16T00:21:23;5.03;;;3.90;;
65387;SDS011;51992;53.528;49.474;2022-09-16T00:23:49;5.25;;;3.95;;
65387;SDS011;51992;53.528;49.474;2022-09-16T00:26:15;7.50;;;4.22;;
65387;SDS011;51992;53.528;49.474;2022-09-16T00:28:41;4.85;;;4.25;;
65387;SDS011;51992;53.528;49.474;2022-09-16T00:31:07;4.47;;;3.75;;
65387;SDS011;51992;53.528;49.474;2022-09-16T00:33:32;4.18;;;3.58;;
65387;SDS011;51992;53.528;49.474;2022-09-16T00:36:08;6.43;;;3.97;;
65387;SDS011;51992;53.528;49.474;2022-09-16T00:38:34;8.80;;;3.90;;
65387;SDS011;51992;53.528;49.474;2022-09-16T00:40:59;4.53;;;3.50;;
65387;SDS011;51992;53.528;49.474;2022-09-16T00:43:25;4.00;;;3.33;;
65387;SDS011;51992;53.528;49.474;2022-09-16T00:45:58;4.20;;;3.25;;
65387;SDS011;51992;53.528;49.474;2022-09-16T00:48:25;3.80;;;3.25;;
65387;SDS011;51992;53.528;49.474;2022-09-16T00:50:55;5.30;;;3.88;;
65387;SDS011;51992;53.528;49.474;2022-09-16T00:53:33;4.28;;;3.40;;
65387;SDS011;51992;53.528;49.474;2022-09-16T00:56:00;4.18;;;3.20;;
65387;SDS011;51992;53.528;49.474;2022-09-16T01:01:12;3.90;;;3.58;;
65387;SDS011;51992;53.528;49.474;2022-09-16T01:03:45;5.95;;;3.53;;
65387;SDS011;51992;53.528;49.474;2022-09-16T01:06:11;3.53;;;3.22;;
65387;SDS011;51992;53.528;49.474;2022-09-16T01:08:39;4.97;;;3.60;;
65387;SDS011;51992;53.528;49.474;2022-09-16T01:11:06;5.82;;;3.55;;
65387;SDS011;51992;53.528;49.474;2022-09-16T01:13:32;6.88;;;3.40;;
65387;SDS011;51992;53.528;49.474;2022-09-16T01:18:31;4.70;;;3.38;;
65387;SDS011;51992;53.528;49.474;2022-09-16T01:21:04;3.78;;;3.42;;
65387;SDS011;51992;53.528;49.474;2022-09-16T01:26:10;3.92;;;3.30;;
65387;SDS011;51992;53.528;49.474;2022-09-16T01:31:08;4.30;;;3.42;;
65387;SDS011;51992;53.528;49.474;2022-09-16T01:33:58;4.50;;;3.47;;
65387;SDS011;51992;53.528;49.474;2022-09-16T01:44:21;6.63;;;3.67;;
65387;SDS011;51992;53.528;49.474;2022-09-16T01:47:05;6.72;;;4.00;;
65387;SDS011;51992;53.528;49.474;2022-09-16T01:49:46;4.57;;;3.80;;
65387;SDS011;51992;53.528;49.474;2022-09-16T01:54:41;4.78;;;3.95;;
65387;SDS011;51992;53.528;49.474;2022-09-16T01:57:10;4.35;;;3.92;;
65387;SDS011;51992;53.528;49.474;2022-09-16T02:04:53;4.50;;;3.55;;
65387;SDS011;51992;53.528;49.474;2022-09-16T02:07:20;10.15;;;3.85;;
65387;SDS011;51992;53.528;49.474;2022-09-16T02:09:49;6.30;;;3.65;;
65387;SDS011;51992;53.528;49.474;2022-09-16T02:12:19;6.88;;;3.80;;
65387;SDS011;51992;53.528;49.474;2022-09-16T02:14:46;5.90;;;3.88;;
65387;SDS011;51992;53.528;49.474;2022-09-16T02:17:17;6.30;;;3.78;;
65387;SDS011;51992;53.528;49.474;2022-09-16T02:19:55;4.65;;;4.25;;
65387;SDS011;51992;53.528;49.474;2022-09-16T02:22:30;4.72;;;4.32;;
65387;SDS011;51992;53.528;49.474;2022-09-16T02:24:56;6.30;;;4.22;;
65387;SDS011;51992;53.528;49.474;2022-09-16T02:27:23;8.27;;;4.35;;
65387;SDS011;51992;53.528;49.474;2022-09-16T02:29:56;4.97;;;4.40;;
65387;SDS011;51992;53.528;49.474;2022-09-16T02:32:22;7.47;;;4.68;;
65387;SDS011;51992;53.528;49.474;2022-09-16T02:34:51;14.93;;;9.40;;
65387;SDS011;51992;53.528;49.474;2022-09-16T02:37:21;16.75;;;9.48;;
65387;SDS011;51992;53.528;49.474;2022-09-16T02:39:48;15.45;;;5.95;;
65387;SDS011;51992;53.528;49.474;2022-09-16T02:42:15;9.30;;;5.65;;
65387;SDS011;51992;53.528;49.474;2022-09-16T02:44:41;7.10;;;5.43;;
65387;SDS011;51992;53.528;49.474;2022-09-16T02:49:41;6.82;;;5.60;;
65387;SDS011;51992;53.528;49.474;2022-09-16T02:52:15;6.05;;;4.70;;
65387;SDS011;51992;53.528;49.474;2022-09-16T02:57:14;41.28;;;10.70;;
65387;SDS011;51992;53.528;49.474;2022-09-16T02:59:39;32.85;;;10.55;;
65387;SDS011;51992;53.528;49.474;2022-09-16T03:02:05;28.38;;;10.60;;
65387;SDS011;51992;53.528;49.474;2022-09-16T03:04:33;22.17;;;8.02;;
65387;SDS011;51992;53.528;49.474;2022-09-16T03:06:58;12.45;;;5.72;;
65387;SDS011;51992;53.528;49.474;2022-09-16T03:09:24;6.00;;;4.95;;
65387;SDS011;51992;53.528;49.474;2022-09-16T03:19:46;14.32;;;6.25;;
65387;SDS011;51992;53.528;49.474;2022-09-16T03:25:02;23.13;;;15.48;;
65387;SDS011;51992;53.528;49.474;2022-09-16T03:27:36;16.50;;;10.85;;
65387;SDS011;51992;53.528;49.474;2022-09-16T03:30:04;9.13;;;7.22;;
65387;SDS011;51992;53.528;49.474;2022-09-16T03:32:34;8.25;;;5.75;;
65387;SDS011;51992;53.528;49.474;2022-09-16T03:35:10;8.35;;;5.38;;
65387;SDS011;51992;53.528;49.474;2022-09-16T03:37:38;7.30;;;3.92;;
65387;SDS011;51992;53.528;49.474;2022-09-16T03:40:08;7.75;;;4.45;;
65387;SDS011;51992;53.528;49.474;2022-09-16T03:42:37;7.38;;;4.57;;
65387;SDS011;51992;53.528;49.474;2022-09-16T03:45:03;7.57;;;4.55;;
65387;SDS011;51992;53.528;49.474;2022-09-16T03:47:29;5.45;;;4.28;;
65387;SDS011;51992;53.528;49.474;2022-09-16T03:49:54;7.90;;;5.15;;
65387;SDS011;51992;53.528;49.474;2022-09-16T03:52:23;7.82;;;4.72;;
65387;SDS011;51992;53.528;49.474;2022-09-16T03:54:49;6.45;;;4.40;;
65387;SDS011;51992;53.528;49.474;2022-09-16T03:57:15;7.93;;;4.75;;
65387;SDS011;51992;53.528;49.474;2022-09-16T03:59:40;12.45;;;4.28;;
65387;SDS011;51992;53.528;49.474;2022-09-16T04:02:06;6.82;;;4.10;;
65387;SDS011;51992;53.528;49.474;2022-09-16T04:04:32;4.60;;;3.70;;
65387;SDS011;51992;53.528;49.474;2022-09-16T04:06:58;5.10;;;3.67;;
65387;SDS011;51992;53.528;49.474;2022-09-16T04:09:23;4.85;;;4.45;;
65387;SDS011;51992;53.528;49.474;2022-09-16T04:11:49;6.38;;;4.00;;
65387;SDS011;51992;53.528;49.474;2022-09-16T04:14:15;5.13;;;3.58;;
65387;SDS011;51992;53.528;49.474;2022-09-16T04:16:41;9.32;;;4.10;;
65387;SDS011;51992;53.528;49.474;2022-09-16T04:19:06;7.35;;;4.70;;
65387;SDS011;51992;53.528;49.474;2022-09-16T04:21:32;6.05;;;5.43;;
65387;SDS011;51992;53.528;49.474;2022-09-16T04:23:58;8.90;;;4.82;;
65387;SDS011;51992;53.528;49.474;2022-09-16T04:26:24;5.75;;;4.72;;
65387;SDS011;51992;53.528;49.474;2022-09-16T04:28:53;7.65;;;4.53;;
65387;SDS011;51992;53.528;49.474;2022-09-16T04:31:19;8.10;;;5.10;;
65387;SDS011;51992;53.528;49.474;2022-09-16T04:33:44;5.93;;;5.00;;
65387;SDS011;51992;53.528;49.474;2022-09-16T04:36:11;6.22;;;4.95;;
65387;SDS011;51992;53.528;49.474;2022-09-16T04:38:37;9.32;;;5.78;;
65387;SDS011;51992;53.528;49.474;2022-09-16T04:41:07;7.15;;;5.53;;
65387;SDS011;51992;53.528;49.474;2022-09-16T04:43:33;7.75;;;5.88;;
65387;SDS011;51992;53.528;49.474;2022-09-16T04:45:59;9.65;;;5.65;;
65387;SDS011;51992;53.528;49.474;2022-09-16T04:48:25;10.93;;;6.18;;
65387;SDS011;51992;53.528;49.474;2022-09-16T04:50:52;11.77;;;6.20;;
65387;SDS011;51992;53.528;49.474;2022-09-16T04:53:18;9.20;;;6.15;;
65387;SDS011;51992;53.528;49.474;2022-09-16T04:55:44;7.97;;;6.13;;
65387;SDS011;51992;53.528;49.474;2022-09-16T04:58:09;9.32;;;6.15;;
65387;SDS011;51992;53.528;49.474;2022-09-16T05:00:35;8.55;;;6.38;;
65387;SDS011;51992;53.528;49.474;2022-09-16T05:03:01;8.48;;;6.55;;
65387;SDS011;51992;53.528;49.474;2022-09-16T05:05:27;10.93;;;7.03;;
65387;SDS011;51992;53.528;49.474;2022-09-16T05:07:52;11.23;;;7.03;;
65387;SDS011;51992;53.528;49.474;2022-09-16T05:10:18;8.57;;;7.03;;
65387;SDS011;51992;53.528;49.474;2022-09-16T05:12:44;9.88;;;7.03;;
65387;SDS011;51992;53.528;49.474;2022-09-16T05:15:14;9.10;;;6.55;;
65387;SDS011;51992;53.528;49.474;2022-09-16T05:17:40;10.80;;;6.82;;
65387;SDS011;51992;53.528;49.474;2022-09-16T05:20:06;10.57;;;6.45;;
65387;SDS011;51992;53.528;49.474;2022-09-16T05:22:32;9.20;;;6.53;;
65387;SDS011;51992;53.528;49.474;2022-09-16T05:24:57;12.27;;;8.70;;
65387;SDS011;51992;53.528;49.474;2022-09-16T05:27:23;12.98;;;8.10;;
65387;SDS011;51992;53.528;49.474;2022-09-16T05:29:52;10.43;;;6.22;;
65387;SDS011;51992;53.528;49.474;2022-09-16T05:32:18;7.60;;;4.93;;
65387;SDS011;51992;53.528;49.474;2022-09-16T05:34:43;8.63;;;5.30;;
65387;SDS011;51992;53.528;49.474;2022-09-16T05:37:09;15.18;;;5.15;;
65387;SDS011;51992;53.528;49.474;2022-09-16T05:39:35;9.95;;;5.45;;
65387;SDS011;51992;53.528;49.474;2022-09-16T05:42:00;14.50;;;5.45;;
65387;SDS011;51992;53.528;49.474;2022-09-16T05:44:29;11.80;;;5.70;;
65387;SDS011;51992;53.528;49.474;2022-09-16T05:46:55;6.78;;;4.78;;
65387;SDS011;51992;53.528;49.474;2022-09-16T05:49:21;10.65;;;5.70;;
65387;SDS011;51992;53.528;49.474;2022-09-16T05:51:48;5.10;;;4.60;;
65387;SDS011;51992;53.528;49.474;2022-09-16T05:54:13;5.00;;;4.50;;
65387;SDS011;51992;53.528;49.474;2022-09-16T05:56:39;6.97;;;5.30;;
65387;SDS011;51992;53.528;49.474;2022-09-16T05:59:05;5.53;;;4.47;;
65387;SDS011;51992;53.528;49.474;2022-09-16T06:01:31;8.95;;;4.70;;
65387;SDS011;51992;53.528;49.474;2022-09-16T06:03:59;7.55;;;4.90;;
65387;SDS011;51992;53.528;49.474;2022-09-16T06:08:55;6.80;;;4.80;;
65387;SDS011;51992;53.528;49.474;2022-09-16T06:11:21;8.75;;;4.40;;
65387;SDS011;51992;53.528;49.474;2022-09-16T06:13:54;9.43;;;4.60;;
65387;SDS011;51992;53.528;49.474;2022-09-16T06:16:20;7.50;;;4.82;;
65387;SDS011;51992;53.528;49.474;2022-09-16T06:18:46;9.20;;;4.35;;
65387;SDS011;51992;53.528;49.474;2022-09-16T06:21:11;10.85;;;5.10;;
65387;SDS011;51992;53.528;49.474;2022-09-16T06:23:38;8.88;;;4.50;;
65387;SDS011;51992;53.528;49.474;2022-09-16T06:26:05;9.38;;;4.40;;
65387;SDS011;51992;53.528;49.474;2022-09-16T06:28:31;15.57;;;4.80;;
65387;SDS011;51992;53.528;49.474;2022-09-16T06:31:01;4.45;;;3.90;;
65387;SDS011;51992;53.528;49.474;2022-09-16T06:33:27;4.72;;;4.20;;
65387;SDS011;51992;53.528;49.474;2022-09-16T06:35:52;16.38;;;5.45;;
65387;SDS011;51992;53.528;49.474;2022-09-16T06:38:18;9.52;;;4.35;;
65387;SDS011;51992;53.528;49.474;2022-09-16T06:40:44;12.18;;;4.75;;
65387;SDS011;51992;53.528;49.474;2022-09-16T06:43:10;7.32;;;4.18;;
65387;SDS011;51992;53.528;49.474;2022-09-16T06:45:36;7.03;;;3.63;;
65387;SDS011;51992;53.528;49.474;2022-09-16T06:48:01;14.20;;;4.15;;
65387;SDS011;51992;53.528;49.474;2022-09-16T06:50:27;5.55;;;3.60;;
65387;SDS011;51992;53.528;49.474;2022-09-16T06:52:53;5.63;;;3.60;;
65387;SDS011;51992;53.528;49.474;2022-09-16T06:55:18;5.35;;;3.47;;
65387;SDS011;51992;53.528;49.474;2022-09-16T06:57:44;11.52;;;3.10;;
65387;SDS011;51992;53.528;49.474;2022-09-16T07:00:10;7.07;;;2.90;;
65387;SDS011;51992;53.528;49.474;2022-09-16T07:02:36;14.73;;;3.90;;
65387;SDS011;51992;53.528;49.474;2022-09-16T07:05:02;3.20;;;2.83;;
65387;SDS011;51992;53.528;49.474;2022-09-16T07:07:28;5.68;;;3.25;;
65387;SDS011;51992;53.528;49.474;2022-09-16T07:09:55;4.75;;;2.80;;
65387;SDS011;51992;53.528;49.474;2022-09-16T07:12:21;4.75;;;2.53;;
65387;SDS011;51992;53.528;49.474;2022-09-16T07:14:47;4.32;;;2.70;;
65387;SDS011;51992;53.528;49.474;2022-09-16T07:17:12;3.50;;;2.15;;
65387;SDS011;51992;53.528;49.474;2022-09-16T07:19:38;17.60;;;4.32;;
65387;SDS011;51992;53.528;49.474;2022-09-16T07:22:06;5.38;;;2.92;;
65387;SDS011;51992;53.528;49.474;2022-09-16T07:24:32;10.07;;;3.05;;
65387;SDS011;51992;53.528;49.474;2022-09-16T07:26:58;3.88;;;2.70;;
65387;SDS011;51992;53.528;49.474;2022-09-16T07:29:23;4.80;;;2.88;;
65387;SDS011;51992;53.528;49.474;2022-09-16T07:31:49;7.53;;;3.17;;
65387;SDS011;51992;53.528;49.474;2022-09-16T07:34:15;2.25;;;2.15;;
65387;SDS011;51992;53.528;49.474;2022-09-16T07:36:42;6.80;;;3.15;;
65387;SDS011;51992;53.528;49.474;2022-09-16T07:39:08;7.60;;;3.03;;
65387;SDS011;51992;53.528;49.474;2022-09-16T07:41:34;3.35;;;3.00;;
65387;SDS011;51992;53.528;49.474;2022-09-16T07:44:01;7.32;;;3.22;;
65387;SDS011;51992;53.528;49.474;2022-09-16T07:46:28;4.93;;;2.58;;
65387;SDS011;51992;53.528;49.474;2022-09-16T07:48:54;9.40;;;3.20;;
65387;SDS011;51992;53.528;49.474;2022-09-16T07:51:21;7.22;;;3.30;;
65387;SDS011;51992;53.528;49.474;2022-09-16T07:53:47;14.82;;;3.47;;
65387;SDS011;51992;53.528;49.474;2022-09-16T07:56:15;5.97;;;3.13;;
65387;SDS011;51992;53.528;49.474;2022-09-16T07:58:41;13.98;;;3.83;;
65387;SDS011;51992;53.528;49.474;2022-09-16T08:01:07;6.50;;;3.05;;
65387;SDS011;51992;53.528;49.474;2022-09-16T08:03:34;3.30;;;3.00;;
65387;SDS011;51992;53.528;49.474;2022-09-16T08:06:00;4.32;;;3.08;;
65387;SDS011;51992;53.528;49.474;2022-09-16T08:08:26;4.25;;;3.47;;
65387;SDS011;51992;53.528;49.474;2022-09-16T08:10:55;4.50;;;3.00;;
65387;SDS011;51992;53.528;49.474;2022-09-16T08:13:21;4.10;;;3.40;;
65387;SDS011;51992;53.528;49.474;2022-09-16T08:15:47;8.73;;;4.07;;
65387;SDS011;51992;53.528;49.474;2022-09-16T08:18:13;3.97;;;2.72;;
65387;SDS011;51992;53.528;49.474;2022-09-16T08:20:39;39.15;;;6.50;;
65387;SDS011;51992;53.528;49.474;2022-09-16T08:23:05;6.70;;;3.10;;
65387;SDS011;51992;53.528;49.474;2022-09-16T08:25:31;3.28;;;2.78;;
65387;SDS011;51992;53.528;49.474;2022-09-16T08:27:57;2.83;;;2.63;;
65387;SDS011;51992;53.528;49.474;2022-09-16T08:30:23;3.35;;;2.65;;
65387;SDS011;51992;53.528;49.474;2022-09-16T08:32:58;6.00;;;2.90;;
65387;SDS011;51992;53.528;49.474;2022-09-16T08:35:24;3.13;;;2.80;;
65387;SDS011;51992;53.528;49.474;2022-09-16T08:37:50;3.13;;;2.83;;
65387;SDS011;51992;53.528;49.474;2022-09-16T08:40:17;5.75;;;2.47;;
65387;SDS011;51992;53.528;49.474;2022-09-16T08:42:56;4.32;;;3.00;;
65387;SDS011;51992;53.528;49.474;2022-09-16T08:50:27;2.58;;;2.38;;
65387;SDS011;51992;53.528;49.474;2022-09-16T08:52:55;5.78;;;2.65;;
65387;SDS011;51992;53.528;49.474;2022-09-16T08:55:24;2.92;;;2.15;;
65387;SDS011;51992;53.528;49.474;2022-09-16T08:57:55;3.88;;;2.50;;
65387;SDS011;51992;53.528;49.474;2022-09-16T09:00:22;7.50;;;2.60;;
65387;SDS011;51992;53.528;49.474;2022-09-16T09:08:05;4.57;;;2.65;;
65387;SDS011;51992;53.528;49.474;2022-09-16T09:10:39;2.65;;;2.35;;
65387;SDS011;51992;53.528;49.474;2022-09-16T09:15:57;2.45;;;2.20;;
65387;SDS011;51992;53.528;49.474;2022-09-16T09:18:42;9.55;;;2.95;;
65387;SDS011;51992;53.528;49.474;2022-09-16T09:21:18;4.20;;;2.13;;
65387;SDS011;51992;53.528;49.474;2022-09-16T09:26:27;4.63;;;2.10;;
65387;SDS011;51992;53.528;49.474;2022-09-16T09:31:38;3.37;;;2.30;;
65387;SDS011;51992;53.528;49.474;2022-09-16T09:42:11;3.55;;;2.50;;
65387;SDS011;51992;53.528;49.474;2022-09-16T09:44:48;2.80;;;2.60;;
65387;SDS011;51992;53.528;49.474;2022-09-16T09:47:25;4.28;;;2.80;;
65387;SDS011;51992;53.528;49.474;2022-09-16T09:49:54;5.20;;;3.13;;
65387;SDS011;51992;53.528;49.474;2022-09-16T09:52:25;2.25;;;2.05;;
65387;SDS011;51992;53.528;49.474;2022-09-16T09:54:53;3.30;;;3.00;;
65387;SDS011;51992;53.528;49.474;2022-09-16T09:57:35;5.97;;;2.75;;
65387;SDS011;51992;53.528;49.474;2022-09-16T10:00:04;3.88;;;3.25;;
65387;SDS011;51992;53.528;49.474;2022-09-16T10:02:40;6.22;;;3.30;;
65387;SDS011;51992;53.528;49.474;2022-09-16T10:05:11;4.03;;;3.25;;
65387;SDS011;51992;53.528;49.474;2022-09-16T10:07:43;3.53;;;3.22;;
65387;SDS011;51992;53.528;49.474;2022-09-16T10:10:15;3.58;;;3.15;;
65387;SDS011;51992;53.528;49.474;2022-09-16T10:12:42;3.70;;;3.35;;
65387;SDS011;51992;53.528;49.474;2022-09-16T10:15:21;6.05;;;3.55;;
65387;SDS011;51992;53.528;49.474;2022-09-16T10:17:50;3.90;;;3.60;;
65387;SDS011;51992;53.528;49.474;2022-09-16T10:20:21;5.75;;;3.33;;
65387;SDS011;51992;53.528;49.474;2022-09-16T10:22:57;3.20;;;3.00;;
65387;SDS011;51992;53.528;49.474;2022-09-16T10:25:23;5.20;;;3.40;;
65387;SDS011;51992;53.528;49.474;2022-09-16T10:27:53;3.30;;;3.08;;
65387;SDS011;51992;53.528;49.474;2022-09-16T10:30:19;4.57;;;3.38;;
65387;SDS011;51992;53.528;49.474;2022-09-16T10:32:52;3.58;;;3.25;;
65387;SDS011;51992;53.528;49.474;2022-09-16T10:35:20;4.00;;;3.65;;
65387;SDS011;51992;53.528;49.474;2022-09-16T10:37:51;3.70;;;3.40;;
65387;SDS011;51992;53.528;49.474;2022-09-16T10:40:17;3.60;;;3.30;;
65387;SDS011;51992;53.528;49.474;2022-09-16T10:42:46;3.85;;;3.22;;
65387;SDS011;51992;53.528;49.474;2022-09-16T10:45:14;3.85;;;3.10;;
65387;SDS011;51992;53.528;49.474;2022-09-16T10:47:45;3.63;;;3.33;;
65387;SDS011;51992;53.528;49.474;2022-09-16T10:50:17;3.20;;;2.90;;
65387;SDS011;51992;53.528;49.474;2022-09-16T10:52:44;6.90;;;3.47;;
65387;SDS011;51992;53.528;49.474;2022-09-16T10:58:08;8.52;;;3.42;;
65387;SDS011;51992;53.528;49.474;2022-09-16T11:00:44;4.00;;;3.17;;
65387;SDS011;51992;53.528;49.474;2022-09-16T11:04:02;24.45;;;4.32;;
65387;SDS011;51992;53.528;49.474;2022-09-16T11:08:46;5.93;;;3.08;;
65387;SDS011;51992;53.528;49.474;2022-09-16T11:14:05;10.60;;;3.50;;
65387;SDS011;51992;53.528;49.474;2022-09-16T11:21:54;6.60;;;3.30;;
65387;SDS011;51992;53.528;49.474;2022-09-16T11:29:25;3.72;;;3.35;;
65387;SDS011;51992;53.528;49.474;2022-09-16T11:31:58;4.85;;;3.30;;
65387;SDS011;51992;53.528;49.474;2022-09-16T11:37:13;3.80;;;3.50;;
65387;SDS011;51992;53.528;49.474;2022-09-16T11:39:44;6.88;;;3.60;;
65387;SDS011;51992;53.528;49.474;2022-09-16T11:42:16;6.95;;;3.58;;
65387;SDS011;51992;53.528;49.474;2022-09-16T11:52:47;6.07;;;4.22;;
65387;SDS011;51992;53.528;49.474;2022-09-16T11:55:19;3.92;;;3.15;;
65387;SDS011;51992;53.528;49.474;2022-09-16T11:57:53;4.50;;;3.42;;
65387;SDS011;51992;53.528;49.474;2022-09-16T12:00:20;5.20;;;3.30;;
65387;SDS011;51992;53.528;49.474;2022-09-16T12:10:42;7.15;;;4.40;;
65387;SDS011;51992;53.528;49.474;2022-09-16T12:15:55;5.78;;;3.85;;
65387;SDS011;51992;53.528;49.474;2022-09-16T12:20:53;8.93;;;4.47;;
65387;SDS011;51992;53.528;49.474;2022-09-16T12:23:29;7.68;;;4.20;;
65387;SDS011;51992;53.528;49.474;2022-09-16T12:28:53;4.97;;;3.92;;
65387;SDS011;51992;53.528;49.474;2022-09-16T12:33:52;5.68;;;4.03;;
65387;SDS011;51992;53.528;49.474;2022-09-16T12:36:29;7.82;;;4.28;;
65387;SDS011;51992;53.528;49.474;2022-09-16T12:38:57;6.75;;;4.07;;
65387;SDS011;51992;53.528;49.474;2022-09-16T12:41:38;10.02;;;4.22;;
65387;SDS011;51992;53.528;49.474;2022-09-16T12:46:42;9.38;;;4.72;;
65387;SDS011;51992;53.528;49.474;2022-09-16T12:54:20;4.97;;;4.47;;
65387;SDS011;51992;53.528;49.474;2022-09-16T13:02:19;7.10;;;4.63;;
65387;SDS011;51992;53.528;49.474;2022-09-16T13:04:56;10.82;;;5.63;;
65387;SDS011;51992;53.528;49.474;2022-09-16T13:07:33;11.27;;;5.72;;
65387;SDS011;51992;53.528;49.474;2022-09-16T13:12:31;14.25;;;5.60;;
65387;SDS011;51992;53.528;49.474;2022-09-16T13:14:58;10.05;;;4.72;;
65387;SDS011;51992;53.528;49.474;2022-09-16T13:17:28;8.57;;;4.60;;
65387;SDS011;51992;53.528;49.474;2022-09-16T13:19:55;8.90;;;4.97;;
65387;SDS011;51992;53.528;49.474;2022-09-16T13:22:28;5.97;;;4.30;;
65387;SDS011;51992;53.528;49.474;2022-09-16T13:25:07;6.20;;;4.50;;
65387;SDS011;51992;53.528;49.474;2022-09-16T13:27:37;5.05;;;3.85;;
65387;SDS011;51992;53.528;49.474;2022-09-16T13:30:05;5.28;;;4.28;;
65387;SDS011;51992;53.528;49.474;2022-09-16T13:32:41;9.90;;;4.95;;
65387;SDS011;51992;53.528;49.474;2022-09-16T13:37:43;13.65;;;5.00;;
65387;SDS011;51992;53.528;49.474;2022-09-16T13:45:37;17.48;;;5.22;;
65387;SDS011;51992;53.528;49.474;2022-09-16T13:50:40;12.52;;;5.35;;
65387;SDS011;51992;53.528;49.474;2022-09-16T13:53:07;14.80;;;5.10;;
65387;SDS011;51992;53.528;49.474;2022-09-16T13:55:33;16.80;;;5.93;;
65387;SDS011;51992;53.528;49.474;2022-09-16T14:00:26;16.25;;;5.72;;
65387;SDS011;51992;53.528;49.474;2022-09-16T14:05:31;14.48;;;5.95;;
65387;SDS011;51992;53.528;49.474;2022-09-16T14:08:05;18.70;;;5.72;;
65387;SDS011;51992;53.528;49.474;2022-09-16T14:13:08;13.60;;;5.30;;
65387;SDS011;51992;53.528;49.474;2022-09-16T14:15:36;14.23;;;5.13;;
65387;SDS011;51992;53.528;49.474;2022-09-16T14:18:03;13.98;;;5.00;;
65387;SDS011;51992;53.528;49.474;2022-09-16T14:20:29;15.95;;;5.80;;
65387;SDS011;51992;53.528;49.474;2022-09-16T14:23:02;26.30;;;7.25;;
65387;SDS011;51992;53.528;49.474;2022-09-16T14:25:29;28.83;;;8.05;;
65387;SDS011;51992;53.528;49.474;2022-09-16T14:28:12;32.83;;;8.45;;
65387;SDS011;51992;53.528;49.474;2022-09-16T14:33:22;36.88;;;9.38;;
65387;SDS011;51992;53.528;49.474;2022-09-16T14:35:49;38.65;;;10.70;;
65387;SDS011;51992;53.528;49.474;2022-09-16T14:38:17;43.60;;;10.05;;
65387;SDS011;51992;53.528;49.474;2022-09-16T14:40:44;62.15;;;12.07;;
65387;SDS011;51992;53.528;49.474;2022-09-16T14:43:20;55.85;;;11.85;;
65387;SDS011;51992;53.528;49.474;2022-09-16T14:45:53;73.22;;;13.23;;
65387;SDS011;51992;53.528;49.474;2022-09-16T14:48:21;60.25;;;12.68;;
65387;SDS011;51992;53.528;49.474;2022-09-16T14:50:48;53.08;;;12.45;;
65387;SDS011;51992;53.528;49.474;2022-09-16T14:53:28;47.65;;;12.90;;
65387;SDS011;51992;53.528;49.474;2022-09-16T14:55:54;52.20;;;12.07;;
65387;SDS011;51992;53.528;49.474;2022-09-16T14:58:20;53.05;;;12.52;;
65387;SDS011;51992;53.528;49.474;2022-09-16T15:01:06;64.18;;;15.18;;
65387;SDS011;51992;53.528;49.474;2022-09-16T15:03:54;68.97;;;15.38;;
65387;SDS011;51992;53.528;49.474;2022-09-16T15:06:20;66.22;;;15.70;;
65387;SDS011;51992;53.528;49.474;2022-09-16T15:08:51;64.28;;;14.27;;
65387;SDS011;51992;53.528;49.474;2022-09-16T15:11:20;75.22;;;13.85;;
65387;SDS011;51992;53.528;49.474;2022-09-16T15:13:46;66.28;;;14.68;;
65387;SDS011;51992;53.528;49.474;2022-09-16T15:16:16;63.20;;;13.80;;
65387;SDS011;51992;53.528;49.474;2022-09-16T15:18:51;53.33;;;12.43;;
65387;SDS011;51992;53.528;49.474;2022-09-16T15:21:18;23.45;;;10.13;;
65387;SDS011;51992;53.528;49.474;2022-09-16T15:23:52;25.92;;;11.20;;
65387;SDS011;51992;53.528;49.474;2022-09-16T15:26:20;18.13;;;8.18;;
65387;SDS011;51992;53.528;49.474;2022-09-16T15:28:47;13.35;;;6.40;;
65387;SDS011;51992;53.528;49.474;2022-09-16T15:31:14;14.70;;;7.60;;
65387;SDS011;51992;53.528;49.474;2022-09-16T15:33:50;21.42;;;9.05;;
65387;SDS011;51992;53.528;49.474;2022-09-16T15:39:01;22.55;;;11.95;;
65387;SDS011;51992;53.528;49.474;2022-09-16T15:41:27;21.65;;;10.32;;
65387;SDS011;51992;53.528;49.474;2022-09-16T15:43:52;27.88;;;10.27;;
65387;SDS011;51992;53.528;49.474;2022-09-16T15:46:27;24.75;;;9.27;;
65387;SDS011;51992;53.528;49.474;2022-09-16T15:48:58;20.67;;;8.40;;
65387;SDS011;51992;53.528;49.474;2022-09-16T15:53:50;20.20;;;9.15;;
65387;SDS011;51992;53.528;49.474;2022-09-16T15:56:33;18.33;;;8.55;;
65387;SDS011;51992;53.528;49.474;2022-09-16T15:59:02;14.80;;;8.70;;
65387;SDS011;51992;53.528;49.474;2022-09-16T16:01:37;13.60;;;8.98;;
65387;SDS011;51992;53.528;49.474;2022-09-16T16:04:05;12.60;;;9.65;;
65387;SDS011;51992;53.528;49.474;2022-09-16T16:11:55;22.13;;;12.60;;
65387;SDS011;51992;53.528;49.474;2022-09-16T16:14:26;21.73;;;12.63;;
65387;SDS011;51992;53.528;49.474;2022-09-16T16:17:07;14.57;;;10.40;;
65387;SDS011;51992;53.528;49.474;2022-09-16T16:19:33;11.02;;;7.50;;
65387;SDS011;51992;53.528;49.474;2022-09-16T16:21:59;8.57;;;7.32;;
65387;SDS011;51992;53.528;49.474;2022-09-16T16:24:25;10.38;;;6.63;;
65387;SDS011;51992;53.528;49.474;2022-09-16T16:26:51;8.63;;;5.60;;
65387;SDS011;51992;53.528;49.474;2022-09-16T16:29:17;7.05;;;5.85;;
65387;SDS011;51992;53.528;49.474;2022-09-16T16:34:24;8.27;;;6.32;;
65387;SDS011;51992;53.528;49.474;2022-09-16T16:36:49;8.38;;;5.88;;
65387;SDS011;51992;53.528;49.474;2022-09-16T16:39:15;7.50;;;6.07;;
65387;SDS011;51992;53.528;49.474;2022-09-16T16:41:41;7.97;;;5.78;;
65387;SDS011;51992;53.528;49.474;2022-09-16T16:44:06;8.05;;;5.82;;
65387;SDS011;51992;53.528;49.474;2022-09-16T16:46:32;8.85;;;5.60;;
65387;SDS011;51992;53.528;49.474;2022-09-16T16:48:58;8.23;;;6.18;;
65387;SDS011;51992;53.528;49.474;2022-09-16T16:51:27;7.15;;;5.85;;
65387;SDS011;51992;53.528;49.474;2022-09-16T16:53:53;10.73;;;5.88;;
65387;SDS011;51992;53.528;49.474;2022-09-16T16:56:18;6.72;;;5.85;;
65387;SDS011;51992;53.528;49.474;2022-09-16T16:58:44;11.98;;;7.18;;
65387;SDS011;51992;53.528;49.474;2022-09-16T17:01:11;12.88;;;8.30;;
65387;SDS011;51992;53.528;49.474;2022-09-16T17:03:37;13.35;;;8.98;;
65387;SDS011;51992;53.528;49.474;2022-09-16T17:06:03;11.23;;;8.68;;
65387;SDS011;51992;53.528;49.474;2022-09-16T17:08:29;11.63;;;7.70;;
65387;SDS011;51992;53.528;49.474;2022-09-16T17:11:05;14.20;;;7.78;;
65387;SDS011;51992;53.528;49.474;2022-09-16T17:13:31;11.27;;;7.20;;
65387;SDS011;51992;53.528;49.474;2022-09-16T17:15:56;11.30;;;7.50;;
65387;SDS011;51992;53.528;49.474;2022-09-16T17:18:22;21.23;;;8.18;;
65387;SDS011;51992;53.528;49.474;2022-09-16T17:20:48;10.35;;;8.48;;
65387;SDS011;51992;53.528;49.474;2022-09-16T17:23:14;15.00;;;8.35;;
65387;SDS011;51992;53.528;49.474;2022-09-16T17:25:40;10.75;;;8.38;;